Time;durP1;ratioP1;P1;durP2;ratioP2;P2;SDS_P1;SDS_P2;PMS_P1;PMS_P2;Temp;Humidity;BMP_temperature;BMP_pressure;BME280_temperature;BME280_humidity;BME280_pressure;Samples;Min_cycle;Max_cycle;Signal;HPM_P1;HPM_P2
2023/03/28 03:22:50;;;;;;;6.50;2.97;;;;;;;;;;6135189;23;1280029;-89
2023/03/28 03:25:56;;;;;;;9.20;3.20;;;;;;;;;;6174202;22;20164;-89
2023/03/28 03:29:07;;;;;;;6.60;2.90;;;;;;;;;;6175173;23;20178;-89
2023/03/28 03:32:13;;;;;;;3.77;2.60;;;;;;;;;;6173251;22;20171;-88
2023/03/28 03:35:23;;;;;;;6.07;2.80;;;;;;;;;;6175804;23;20244;-88
2023/03/28 03:38:30;;;;;;;4.43;2.57;;;;;;;;;;6173100;23;20183;-88
2023/03/28 03:41:35;;;;;;;4.67;2.60;;;;;;;;;;6173255;22;20167;-88
2023/03/28 03:44:44;;;;;;;6.37;2.80;;;;;;;;;;6173481;23;20175;-89
2023/03/28 03:47:50;;;;;;;5.20;2.70;;;;;;;;;;6171934;23;20172;-89
2023/03/28 03:50:56;;;;;;;4.87;2.50;;;;;;;;;;6172204;23;20210;-90
2023/03/28 03:54:02;;;;;;;6.90;3.00;;;;;;;;;;6172638;23;20676;-89
2023/03/28 03:57:16;;;;;;;5.53;3.10;;;;;;;;;;6171752;23;20209;-89
2023/03/28 04:00:21;;;;;;;5.47;2.50;;;;;;;;;;6172171;23;20172;-88
2023/03/28 04:03:33;;;;;;;5.57;2.60;;;;;;;;;;6171694;23;20167;-90
2023/03/28 04:06:38;;;;;;;7.00;2.40;;;;;;;;;;6173422;23;20152;-89
2023/03/28 04:09:47;;;;;;;5.63;2.43;;;;;;;;;;6174254;23;20242;-89
2023/03/28 04:12:52;;;;;;;5.43;2.30;;;;;;;;;;6172608;22;20615;-89
2023/03/28 04:15:58;;;;;;;3.40;2.50;;;;;;;;;;6173324;22;20163;-88
2023/03/28 04:19:20;;;;;;;3.30;2.37;;;;;;;;;;6173811;23;20164;-89
2023/03/28 04:22:28;;;;;;;7.33;2.23;;;;;;;;;;6174586;23;20184;-89
2023/03/28 04:25:35;;;;;;;10.93;2.97;;;;;;;;;;6176465;22;20214;-90
2023/03/28 04:29:03;;;;;;;5.33;2.80;;;;;;;;;;6194105;23;20164;-89
2023/03/28 04:32:11;;;;;;;6.03;2.90;;;;;;;;;;6172402;22;20167;-89
2023/03/28 04:35:41;;;;;;;4.20;2.73;;;;;;;;;;6174224;23;20167;-89
2023/03/28 04:38:46;;;;;;;5.07;2.80;;;;;;;;;;6175848;23;20493;-89
2023/03/28 04:42:07;;;;;;;8.03;3.00;;;;;;;;;;6175141;22;20172;-89
2023/03/28 04:45:33;;;;;;;8.33;3.20;;;;;;;;;;6192091;23;20144;-87
2023/03/28 04:48:48;;;;;;;7.50;2.83;;;;;;;;;;6176064;23;20172;-90
2023/03/28 04:51:57;;;;;;;7.43;2.87;;;;;;;;;;6177543;22;20200;-89
2023/03/28 04:55:03;;;;;;;6.13;2.70;;;;;;;;;;6176021;23;20164;-88
2023/03/28 04:58:10;;;;;;;9.00;2.90;;;;;;;;;;6174319;23;20172;-86
2023/03/28 05:01:18;;;;;;;7.27;3.30;;;;;;;;;;6175419;23;20172;-88
2023/03/28 05:04:55;;;;;;;9.27;3.50;;;;;;;;;;6192948;23;20187;-90
2023/03/28 05:08:02;;;;;;;5.23;3.20;;;;;;;;;;6175442;22;20290;-89
2023/03/28 05:11:08;;;;;;;6.40;3.10;;;;;;;;;;6175828;23;20214;-90
2023/03/28 05:14:16;;;;;;;5.40;3.10;;;;;;;;;;6176957;23;20151;-89
2023/03/28 05:17:27;;;;;;;7.07;3.43;;;;;;;;;;6176243;23;20226;-88
2023/03/28 05:20:39;;;;;;;8.23;2.93;;;;;;;;;;6175895;23;20175;-90
2023/03/28 05:23:45;;;;;;;7.93;3.40;;;;;;;;;;6178283;23;20187;-88
2023/03/28 05:26:57;;;;;;;7.70;3.23;;;;;;;;;;6177423;23;20172;-89
2023/03/28 05:30:04;;;;;;;8.37;3.03;;;;;;;;;;6174967;23;20195;-88
2023/03/28 05:33:10;;;;;;;9.67;2.90;;;;;;;;;;6176323;23;20273;-88
2023/03/28 05:36:15;;;;;;;8.77;3.20;;;;;;;;;;6175607;23;20184;-88
2023/03/28 05:39:20;;;;;;;10.60;3.13;;;;;;;;;;6177129;23;20220;-88
2023/03/28 05:42:26;;;;;;;9.90;3.27;;;;;;;;;;6176006;23;20187;-89
2023/03/28 05:45:33;;;;;;;6.10;2.53;;;;;;;;;;6177180;23;20239;-87
2023/03/28 05:48:48;;;;;;;9.30;2.93;;;;;;;;;;6179008;22;20295;-91
2023/03/28 05:51:53;;;;;;;9.60;3.00;;;;;;;;;;6176744;22;20242;-89
2023/03/28 05:55:02;;;;;;;8.40;2.90;;;;;;;;;;6177618;23;20239;-87
2023/03/28 05:58:08;;;;;;;11.53;3.30;;;;;;;;;;6177209;23;20215;-89
2023/03/28 06:01:33;;;;;;;8.70;3.17;;;;;;;;;;6176296;23;20610;-91
2023/03/28 06:04:42;;;;;;;9.10;3.43;;;;;;;;;;6177114;23;20238;-89
2023/03/28 06:07:50;;;;;;;5.83;2.63;;;;;;;;;;6174752;23;20179;-91
2023/03/28 06:11:00;;;;;;;7.03;2.90;;;;;;;;;;6176010;23;20228;-89
2023/03/28 06:14:09;;;;;;;9.90;3.40;;;;;;;;;;6176392;22;20295;-87
2023/03/28 06:17:17;;;;;;;7.53;2.93;;;;;;;;;;6176897;22;20238;-89
2023/03/28 06:20:37;;;;;;;7.73;2.93;;;;;;;;;;6177932;23;20189;-89
2023/03/28 06:23:42;;;;;;;11.50;3.37;;;;;;;;;;6175938;23;20631;-90
2023/03/28 06:26:58;;;;;;;12.67;3.60;;;;;;;;;;6175534;23;20167;-91
2023/03/28 06:30:04;;;;;;;10.57;3.63;;;;;;;;;;6174050;23;20168;-89
2023/03/28 06:33:16;;;;;;;12.30;3.97;;;;;;;;;;6174241;22;20172;-89
2023/03/28 06:36:21;;;;;;;9.97;3.53;;;;;;;;;;6179895;23;20167;-89
2023/03/28 06:39:27;;;;;;;9.67;4.10;;;;;;;;;;6175158;23;20168;-90
2023/03/28 06:42:36;;;;;;;29.53;5.20;;;;;;;;;;6174809;23;20171;-90
2023/03/28 06:45:59;;;;;;;14.80;4.13;;;;;;;;;;6177175;22;20174;-88
2023/03/28 06:49:06;;;;;;;9.53;4.27;;;;;;;;;;6176611;22;20242;-90
2023/03/28 06:52:34;;;;;;;7.57;3.50;;;;;;;;;;6193275;23;20202;-90
2023/03/28 06:55:42;;;;;;;13.50;5.13;;;;;;;;;;6175513;23;20195;-90
2023/03/28 06:58:47;;;;;;;10.83;3.73;;;;;;;;;;6177323;23;20236;-89
2023/03/28 07:01:58;;;;;;;10.27;3.30;;;;;;;;;;6176099;22;20172;-89
2023/03/28 07:05:11;;;;;;;10.47;3.40;;;;;;;;;;6175352;22;20619;-89
2023/03/28 07:08:16;;;;;;;10.03;3.77;;;;;;;;;;6176713;23;20202;-92
2023/03/28 07:11:21;;;;;;;12.60;4.03;;;;;;;;;;6174329;23;20195;-90
2023/03/28 07:14:28;;;;;;;12.70;3.67;;;;;;;;;;6174032;23;20297;-90
2023/03/28 07:17:33;;;;;;;8.63;3.77;;;;;;;;;;6173804;22;20289;-89
2023/03/28 07:20:40;;;;;;;16.17;4.40;;;;;;;;;;6173262;23;20172;-90
2023/03/28 07:23:45;;;;;;;12.60;4.17;;;;;;;;;;6175286;23;20168;-89
2023/03/28 07:26:52;;;;;;;12.83;4.47;;;;;;;;;;6172575;23;20172;-88
2023/03/28 07:29:57;;;;;;;8.70;4.10;;;;;;;;;;6174245;22;20237;-89
2023/03/28 07:33:02;;;;;;;14.43;4.20;;;;;;;;;;6172859;22;20602;-89
2023/03/28 07:36:10;;;;;;;6.83;3.37;;;;;;;;;;6174577;22;20172;-90
2023/03/28 07:39:16;;;;;;;31.33;5.30;;;;;;;;;;6174381;23;20272;-90
2023/03/28 07:42:21;;;;;;;11.67;3.37;;;;;;;;;;6174259;23;20230;-88
2023/03/28 07:45:26;;;;;;;15.40;3.73;;;;;;;;;;6173901;23;20223;-91
2023/03/28 07:48:31;;;;;;;13.43;3.00;;;;;;;;;;6173226;23;20250;-88
2023/03/28 07:51:38;;;;;;;14.40;4.20;;;;;;;;;;6174096;22;20222;-90
2023/03/28 07:54:43;;;;;;;13.23;3.43;;;;;;;;;;6176225;23;20179;-89
2023/03/28 07:57:48;;;;;;;16.03;3.87;;;;;;;;;;6176710;23;20172;-89
2023/03/28 08:01:06;;;;;;;7.57;3.23;;;;;;;;;;6176143;23;20176;-90
2023/03/28 08:04:24;;;;;;;10.60;3.77;;;;;;;;;;6176837;23;20164;-90
2023/03/28 08:07:45;;;;;;;11.30;3.50;;;;;;;;;;6174254;23;20171;-91
2023/03/28 08:10:51;;;;;;;12.50;3.33;;;;;;;;;;6174595;23;20195;-92
2023/03/28 08:14:02;;;;;;;6.17;2.73;;;;;;;;;;6176923;23;20570;-87
2023/03/28 08:17:08;;;;;;;9.80;2.90;;;;;;;;;;6175929;23;20175;-90
2023/03/28 08:20:15;;;;;;;11.53;2.97;;;;;;;;;;6175071;23;20217;-91
2023/03/28 08:23:40;;;;;;;7.43;2.40;;;;;;;;;;6194219;23;20175;-91
2023/03/28 08:26:51;;;;;;;11.97;2.40;;;;;;;;;;6192442;23;20282;-89
2023/03/28 08:29:57;;;;;;;9.50;2.47;;;;;;;;;;6175903;23;20152;-88
2023/03/28 08:33:03;;;;;;;9.17;2.50;;;;;;;;;;6176066;22;20172;-89
2023/03/28 08:36:13;;;;;;;10.80;2.83;;;;;;;;;;6175172;23;20168;-90
2023/03/28 08:39:22;;;;;;;7.50;1.93;;;;;;;;;;6178900;23;20147;-89
2023/03/28 08:42:48;;;;;;;5.57;1.83;;;;;;;;;;6176998;23;20190;-88
2023/03/28 08:45:54;;;;;;;5.57;2.20;;;;;;;;;;6175002;23;20168;-88
2023/03/28 08:54:57;;;;;;;6.50;2.10;;;;;;;;;;6163556;22;20228;-88
2023/03/28 08:58:03;;;;;;;5.90;2.17;;;;;;;;;;6144396;23;20731;-89
2023/03/28 09:01:09;;;;;;;21.20;2.77;;;;;;;;;;6144127;23;20226;-90
2023/03/28 09:04:22;;;;;;;5.83;1.63;;;;;;;;;;6147246;23;20299;-89
2023/03/28 09:07:35;;;;;;;11.63;2.17;;;;;;;;;;6144303;23;20172;-89
2023/03/28 09:10:44;;;;;;;9.13;2.13;;;;;;;;;;6147110;23;20212;-89
2023/03/28 09:14:01;;;;;;;7.77;2.00;;;;;;;;;;6143662;23;20169;-91
2023/03/28 09:17:10;;;;;;;9.60;2.07;;;;;;;;;;6145096;23;20230;-88
2023/03/28 09:20:19;;;;;;;20.73;5.90;;;;;;;;;;6144760;23;20215;-90
2023/03/28 09:23:39;;;;;;;13.43;2.67;;;;;;;;;;6163439;23;20177;-89
2023/03/28 09:27:24;;;;;;;9.90;2.33;;;;;;;;;;6161769;23;20539;-88
2023/03/28 09:30:31;;;;;;;7.70;2.70;;;;;;;;;;6146671;23;20246;-90
2023/03/28 09:33:39;;;;;;;10.40;2.33;;;;;;;;;;6144706;23;20172;-88
2023/03/28 09:36:46;;;;;;;10.73;1.70;;;;;;;;;;6145764;23;20165;-88
2023/03/28 09:39:55;;;;;;;9.80;2.07;;;;;;;;;;6146295;23;20818;-90
2023/03/28 09:43:11;;;;;;;7.80;2.60;;;;;;;;;;6145516;23;20646;-84
2023/03/28 09:46:26;;;;;;;8.50;2.10;;;;;;;;;;6143970;23;20180;-89
2023/03/28 09:49:59;;;;;;;7.93;2.20;;;;;;;;;;6165145;23;20218;-90
2023/03/28 09:53:05;;;;;;;9.97;2.07;;;;;;;;;;6145450;23;20666;-89
2023/03/28 09:56:15;;;;;;;7.63;1.87;;;;;;;;;;6146765;23;20171;-87
2023/03/28 09:59:27;;;;;;;13.13;2.03;;;;;;;;;;6145616;23;20173;-87
2023/03/28 10:02:57;;;;;;;11.43;2.00;;;;;;;;;;6146769;23;20160;-87
2023/03/28 10:06:18;;;;;;;8.23;2.40;;;;;;;;;;6145108;23;20241;-89
2023/03/28 10:09:25;;;;;;;8.00;1.90;;;;;;;;;;6146751;23;20168;-89
2023/03/28 10:12:37;;;;;;;9.82;2.08;;;;;;;;;;6145732;23;20193;-88
2023/03/28 10:15:48;;;;;;;5.13;1.40;;;;;;;;;;6145220;23;20230;-88
2023/03/28 10:19:14;;;;;;;7.57;1.80;;;;;;;;;;6163909;23;20196;-90
2023/03/28 10:22:34;;;;;;;7.57;2.20;;;;;;;;;;6145472;23;20291;-88
2023/03/28 10:25:43;;;;;;;9.03;2.00;;;;;;;;;;6147014;23;20153;-90
2023/03/28 10:28:51;;;;;;;5.63;1.43;;;;;;;;;;6147916;23;20180;-89
2023/03/28 10:31:56;;;;;;;7.93;2.00;;;;;;;;;;6145400;23;20274;-89
2023/03/28 10:35:22;;;;;;;5.03;1.53;;;;;;;;;;6146892;23;20172;-90
2023/03/28 10:38:38;;;;;;;6.63;1.87;;;;;;;;;;6146977;23;20284;-90
2023/03/28 10:42:03;;;;;;;9.53;2.27;;;;;;;;;;6146733;23;20191;-92
2023/03/28 10:45:33;;;;;;;5.67;1.70;;;;;;;;;;6165983;23;20173;-89
2023/03/28 10:48:40;;;;;;;9.97;1.80;;;;;;;;;;6146326;23;20169;-90
2023/03/28 10:51:55;;;;;;;9.30;1.53;;;;;;;;;;6165321;23;20176;-90
2023/03/28 10:55:06;;;;;;;2.55;1.38;;;;;;;;;;6146648;23;20240;-89
2023/03/28 10:58:36;;;;;;;5.47;1.58;;;;;;;;;;6164152;23;20222;-89
2023/03/28 11:01:55;;;;;;;3.45;1.25;;;;;;;;;;6144571;23;20189;-90
2023/03/28 11:05:05;;;;;;;4.20;1.88;;;;;;;;;;6145850;23;20152;-90
2023/03/28 11:08:27;;;;;;;6.72;1.70;;;;;;;;;;6145679;23;20192;-89
2023/03/28 11:11:44;;;;;;;7.65;1.73;;;;;;;;;;6143546;23;20192;-86
2023/03/28 11:14:56;;;;;;;7.47;1.40;;;;;;;;;;6144836;23;20180;-89
2023/03/28 11:18:09;;;;;;;5.73;1.40;;;;;;;;;;6147141;23;20195;-89
2023/03/28 11:21:32;;;;;;;5.13;1.30;;;;;;;;;;6146501;23;20218;-87
2023/03/28 11:24:42;;;;;;;8.90;1.50;;;;;;;;;;6150331;23;20176;-89
2023/03/28 11:27:59;;;;;;;13.07;1.97;;;;;;;;;;6143734;23;20243;-88
2023/03/28 11:31:20;;;;;;;9.77;1.63;;;;;;;;;;6144797;23;20176;-89
2023/03/28 11:34:40;;;;;;;8.87;1.63;;;;;;;;;;6146066;23;20199;-88
2023/03/28 11:37:47;;;;;;;5.73;1.70;;;;;;;;;;6145317;23;20177;-90
2023/03/28 11:40:56;;;;;;;8.37;2.30;;;;;;;;;;6143046;23;20168;-91
2023/03/28 11:44:17;;;;;;;5.33;1.63;;;;;;;;;;6146608;23;20254;-88
2023/03/28 11:47:26;;;;;;;4.30;1.35;;;;;;;;;;6146441;23;20157;-89
2023/03/28 11:50:46;;;;;;;10.38;1.80;;;;;;;;;;6148424;23;20165;-89
2023/03/28 11:54:10;;;;;;;6.40;1.52;;;;;;;;;;6146263;23;20204;-88
2023/03/28 11:57:27;;;;;;;3.15;1.13;;;;;;;;;;6146007;23;20169;-88
2023/03/28 12:00:38;;;;;;;6.50;1.70;;;;;;;;;;6146241;23;20169;-89
2023/03/28 12:03:55;;;;;;;4.55;1.17;;;;;;;;;;6145845;23;20222;-89
2023/03/28 12:07:07;;;;;;;7.77;1.50;;;;;;;;;;6143396;23;20262;-90
2023/03/28 12:10:20;;;;;;;5.57;1.20;;;;;;;;;;6144889;23;20181;-88
2023/03/28 12:13:31;;;;;;;5.87;1.50;;;;;;;;;;6145027;23;20196;-89
2023/03/28 12:16:45;;;;;;;4.87;1.30;;;;;;;;;;6145299;23;20227;-89
2023/03/28 12:19:52;;;;;;;6.83;1.53;;;;;;;;;;6143936;23;20292;-87
2023/03/28 12:23:02;;;;;;;4.30;1.50;;;;;;;;;;6146556;23;20160;-90
2023/03/28 12:26:34;;;;;;;9.35;1.80;;;;;;;;;;6164072;23;20262;-90
2023/03/28 12:29:45;;;;;;;6.40;1.40;;;;;;;;;;6144290;23;20501;-90
2023/03/28 12:32:54;;;;;;;3.20;1.30;;;;;;;;;;6142827;23;20189;-89
2023/03/28 12:36:04;;;;;;;5.38;1.50;;;;;;;;;;6145273;23;20200;-89
2023/03/28 12:39:16;;;;;;;7.18;1.20;;;;;;;;;;6144779;23;20216;-89
2023/03/28 12:42:25;;;;;;;4.97;1.30;;;;;;;;;;6143374;23;20210;-87
2023/03/28 12:45:33;;;;;;;7.35;1.30;;;;;;;;;;6143510;23;20155;-89
2023/03/28 12:48:41;;;;;;;2.72;1.23;;;;;;;;;;6143304;23;20164;-88
2023/03/28 12:51:48;;;;;;;3.75;1.20;;;;;;;;;;6146732;23;20177;-89
2023/03/28 12:54:57;;;;;;;9.70;1.30;;;;;;;;;;6147442;23;20183;-89
2023/03/28 12:58:13;;;;;;;3.42;1.10;;;;;;;;;;6143188;23;20203;-88
2023/03/28 13:01:46;;;;;;;10.45;1.25;;;;;;;;;;6162933;23;20169;-89
2023/03/28 13:04:55;;;;;;;8.85;1.50;;;;;;;;;;6163646;23;20197;-88
2023/03/28 13:08:04;;;;;;;6.70;1.20;;;;;;;;;;6144419;23;20172;-91
2023/03/28 13:11:14;;;;;;;3.20;1.10;;;;;;;;;;6142818;23;20164;-89
2023/03/28 13:14:30;;;;;;;5.15;1.40;;;;;;;;;;6152598;23;20176;-88
2023/03/28 13:17:42;;;;;;;5.25;1.25;;;;;;;;;;6151664;23;20172;-90
2023/03/28 13:20:56;;;;;;;5.68;1.33;;;;;;;;;;6151163;23;20188;-90
2023/03/28 13:24:01;;;;;;;7.10;1.30;;;;;;;;;;6144055;23;20172;-88
2023/03/28 13:27:11;;;;;;;6.78;1.30;;;;;;;;;;6144298;23;20160;-89
2023/03/28 13:30:17;;;;;;;4.47;1.20;;;;;;;;;;6142299;23;20185;-88
2023/03/28 13:33:33;;;;;;;5.82;1.50;;;;;;;;;;6149080;23;20259;-88
2023/03/28 13:36:50;;;;;;;3.65;1.27;;;;;;;;;;6143775;23;20173;-89
2023/03/28 13:39:59;;;;;;;3.72;1.00;;;;;;;;;;6142314;23;20504;-89
2023/03/28 13:43:05;;;;;;;4.30;1.25;;;;;;;;;;6143476;23;20169;-89
2023/03/28 13:46:12;;;;;;;6.80;1.40;;;;;;;;;;6142224;23;20573;-91
2023/03/28 13:49:20;;;;;;;11.18;1.58;;;;;;;;;;6143589;23;20596;-90
2023/03/28 13:52:25;;;;;;;7.93;1.30;;;;;;;;;;6141883;23;20192;-90
2023/03/28 13:55:30;;;;;;;1.92;1.05;;;;;;;;;;6143055;23;20211;-90
2023/03/28 13:58:36;;;;;;;3.45;1.23;;;;;;;;;;6141554;23;20173;-89
2023/03/28 14:01:46;;;;;;;6.63;1.33;;;;;;;;;;6143628;23;20172;-89
2023/03/28 14:04:55;;;;;;;6.72;1.50;;;;;;;;;;6145043;23;20168;-88
2023/03/28 14:08:03;;;;;;;2.22;1.00;;;;;;;;;;6142473;23;20188;-90
2023/03/28 14:11:10;;;;;;;3.90;1.13;;;;;;;;;;6146550;23;20184;-87
2023/03/28 14:14:19;;;;;;;5.18;1.30;;;;;;;;;;6147402;23;20192;-89
2023/03/28 14:17:25;;;;;;;4.13;1.30;;;;;;;;;;6146442;23;20173;-89
2023/03/28 14:20:41;;;;;;;3.45;1.30;;;;;;;;;;6146730;23;20588;-87
2023/03/28 14:23:55;;;;;;;3.58;1.10;;;;;;;;;;6148362;23;20235;-90
2023/03/28 14:27:07;;;;;;;2.90;1.10;;;;;;;;;;6145873;23;20183;-89
2023/03/28 14:30:18;;;;;;;3.55;1.10;;;;;;;;;;6149531;23;20176;-93
2023/03/28 14:33:24;;;;;;;5.28;1.42;;;;;;;;;;6148090;23;20207;-90
2023/03/28 14:36:34;;;;;;;6.93;1.52;;;;;;;;;;6148300;23;20211;-88
2023/03/28 14:39:39;;;;;;;5.55;0.90;;;;;;;;;;6145071;23;20281;-90
2023/03/28 14:42:45;;;;;;;6.22;1.33;;;;;;;;;;6147193;23;20219;-91
2023/03/28 14:45:53;;;;;;;3.90;1.10;;;;;;;;;;6145672;23;20173;-88
2023/03/28 14:49:00;;;;;;;4.20;1.17;;;;;;;;;;6145546;23;20165;-91
2023/03/28 14:52:11;;;;;;;2.00;1.00;;;;;;;;;;6146550;23;20171;-91
2023/03/28 14:55:18;;;;;;;3.67;1.10;;;;;;;;;;6145075;23;20275;-88
2023/03/28 14:58:25;;;;;;;4.88;1.20;;;;;;;;;;6146402;23;20169;-91
2023/03/28 15:01:30;;;;;;;6.32;1.15;;;;;;;;;;6147036;23;20247;-91
2023/03/28 15:04:36;;;;;;;9.00;1.45;;;;;;;;;;6146961;23;20176;-88
2023/03/28 15:07:43;;;;;;;7.40;1.42;;;;;;;;;;6144988;23;20195;-89
2023/03/28 15:10:49;;;;;;;4.53;1.15;;;;;;;;;;6143607;23;20173;-89
2023/03/28 15:14:02;;;;;;;4.97;1.15;;;;;;;;;;6142941;23;20262;-90
2023/03/28 15:17:07;;;;;;;8.65;1.92;;;;;;;;;;6144039;23;20173;-89
2023/03/28 15:20:16;;;;;;;6.00;1.23;;;;;;;;;;6144743;23;20169;-88
2023/03/28 15:23:27;;;;;;;5.70;1.17;;;;;;;;;;6146762;23;20225;-89
2023/03/28 15:26:35;;;;;;;6.97;1.45;;;;;;;;;;6146185;23;20606;-90
2023/03/28 15:29:40;;;;;;;4.78;1.40;;;;;;;;;;6146053;23;20702;-90
2023/03/28 15:32:45;;;;;;;6.88;1.45;;;;;;;;;;6142874;23;20184;-88
2023/03/28 15:36:05;;;;;;;2.72;1.20;;;;;;;;;;6143965;23;20311;-88
2023/03/28 15:39:19;;;;;;;4.68;1.38;;;;;;;;;;6145669;23;20218;-89
2023/03/28 15:42:29;;;;;;;9.30;1.35;;;;;;;;;;6144051;23;20192;-90
2023/03/28 15:45:39;;;;;;;2.15;1.17;;;;;;;;;;6142798;23;20176;-89
2023/03/28 15:48:45;;;;;;;3.17;1.00;;;;;;;;;;6143504;23;20169;-90
2023/03/28 15:51:51;;;;;;;6.88;1.60;;;;;;;;;;6142409;23;20355;-90
2023/03/28 15:54:59;;;;;;;3.58;0.98;;;;;;;;;;6141337;23;20187;-89
2023/03/28 15:58:05;;;;;;;2.28;1.00;;;;;;;;;;6143512;23;20167;-90
2023/03/28 16:01:22;;;;;;;3.83;1.05;;;;;;;;;;6146161;23;20314;-92
2023/03/28 16:04:29;;;;;;;4.07;1.15;;;;;;;;;;6144650;23;20177;-89
2023/03/28 16:07:35;;;;;;;9.10;1.92;;;;;;;;;;6146242;23;20241;-89
2023/03/28 16:10:42;;;;;;;6.47;1.55;;;;;;;;;;6144817;23;20248;-90
2023/03/28 16:14:14;;;;;;;4.50;1.75;;;;;;;;;;6166196;23;20196;-89
2023/03/28 16:17:35;;;;;;;6.43;1.45;;;;;;;;;;6145607;23;20496;-90
2023/03/28 16:20:55;;;;;;;6.22;1.42;;;;;;;;;;6144183;23;20172;-90
2023/03/28 16:24:00;;;;;;;6.30;1.50;;;;;;;;;;6145886;23;20172;-90
2023/03/28 16:27:07;;;;;;;4.68;1.38;;;;;;;;;;6146038;23;20176;-89
2023/03/28 16:30:16;;;;;;;5.50;1.40;;;;;;;;;;6145780;23;20182;-92
2023/03/28 16:33:23;;;;;;;7.03;1.33;;;;;;;;;;6146703;23;20193;-91
2023/03/28 16:36:28;;;;;;;7.30;1.70;;;;;;;;;;6146850;23;20165;-92
2023/03/28 16:39:33;;;;;;;7.33;2.00;;;;;;;;;;6144266;23;20180;-92
2023/03/28 16:42:39;;;;;;;8.97;1.70;;;;;;;;;;6148026;23;20169;-90
2023/03/28 16:45:46;;;;;;;6.03;1.70;;;;;;;;;;6148522;23;20169;-90
2023/03/28 16:48:52;;;;;;;10.93;1.90;;;;;;;;;;6146950;23;20220;-92
2023/03/28 16:51:57;;;;;;;6.07;1.80;;;;;;;;;;6146790;23;20262;-92
2023/03/28 16:55:02;;;;;;;6.87;2.27;;;;;;;;;;6147445;23;20192;-92
2023/03/28 16:58:09;;;;;;;8.37;1.70;;;;;;;;;;6147495;23;20175;-90
2023/03/28 17:01:20;;;;;;;5.90;1.77;;;;;;;;;;6145823;23;20183;-92
2023/03/28 17:04:26;;;;;;;8.30;1.90;;;;;;;;;;6145565;23;20169;-89
2023/03/28 17:07:31;;;;;;;7.80;1.63;;;;;;;;;;6145814;23;20180;-89
2023/03/28 17:10:40;;;;;;;10.77;3.40;;;;;;;;;;6147863;23;20236;-89
2023/03/28 17:13:47;;;;;;;4.47;1.43;;;;;;;;;;6147810;23;20200;-89
2023/03/28 17:16:53;;;;;;;7.27;1.83;;;;;;;;;;6145727;23;20284;-88
2023/03/28 17:19:59;;;;;;;9.43;1.80;;;;;;;;;;6147261;23;20171;-88
2023/03/28 17:23:04;;;;;;;5.53;1.57;;;;;;;;;;6146779;23;20172;-89
2023/03/28 17:26:10;;;;;;;5.97;2.03;;;;;;;;;;6146672;23;20620;-89
2023/03/28 17:29:17;;;;;;;6.70;1.53;;;;;;;;;;6146153;23;20172;-88
2023/03/28 17:32:22;;;;;;;6.40;1.60;;;;;;;;;;6145083;23;20510;-90
2023/03/28 17:35:27;;;;;;;7.90;1.40;;;;;;;;;;6145120;23;20168;-90
2023/03/28 17:38:32;;;;;;;8.53;1.87;;;;;;;;;;6146342;23;20303;-89
2023/03/28 17:41:37;;;;;;;7.10;1.63;;;;;;;;;;6145851;23;20494;-90
2023/03/28 17:44:46;;;;;;;8.30;1.60;;;;;;;;;;6147564;23;20180;-90
2023/03/28 17:47:52;;;;;;;9.43;1.80;;;;;;;;;;6145259;23;20161;-92
2023/03/28 17:50:58;;;;;;;16.60;1.90;;;;;;;;;;6145668;23;20173;-89
2023/03/28 17:54:05;;;;;;;8.23;1.83;;;;;;;;;;6144823;23;20239;-89
2023/03/28 17:57:10;;;;;;;7.00;1.50;;;;;;;;;;6143177;23;20227;-87
2023/03/28 18:00:17;;;;;;;7.33;1.57;;;;;;;;;;6145018;23;20187;-89
2023/03/28 18:03:23;;;;;;;8.57;2.33;;;;;;;;;;6143875;23;20257;-89
2023/03/28 18:06:43;;;;;;;11.37;2.80;;;;;;;;;;6145937;23;20173;-90
2023/03/28 18:09:48;;;;;;;10.97;2.57;;;;;;;;;;6144157;23;20494;-88
2023/03/28 18:12:53;;;;;;;13.63;3.70;;;;;;;;;;6144020;23;20505;-87
2023/03/28 18:16:00;;;;;;;11.17;3.40;;;;;;;;;;6143985;23;20168;-88
2023/03/28 18:19:05;;;;;;;10.33;3.90;;;;;;;;;;6145052;23;20171;-89
2023/03/28 18:22:11;;;;;;;9.13;3.13;;;;;;;;;;6145270;23;20176;-88
2023/03/28 18:25:16;;;;;;;16.37;5.60;;;;;;;;;;6144537;23;20215;-90
2023/03/28 18:28:22;;;;;;;19.43;5.30;;;;;;;;;;6144780;23;20230;-87
2023/03/28 18:31:28;;;;;;;14.20;4.27;;;;;;;;;;6145119;23;20242;-90
2023/03/28 18:34:34;;;;;;;32.37;11.63;;;;;;;;;;6148503;23;20196;-90
2023/03/28 18:37:39;;;;;;;30.53;10.50;;;;;;;;;;6145437;23;20168;-93
2023/03/28 18:40:44;;;;;;;15.23;5.93;;;;;;;;;;6146785;23;20165;-92
2023/03/28 18:43:50;;;;;;;10.27;3.43;;;;;;;;;;6144585;23;20172;-91
2023/03/28 18:46:57;;;;;;;12.70;3.40;;;;;;;;;;6143022;23;20168;-87
2023/03/28 18:50:02;;;;;;;12.13;3.67;;;;;;;;;;6144167;23;20176;-88
2023/03/28 18:53:07;;;;;;;10.93;3.47;;;;;;;;;;6143874;23;20192;-91
2023/03/28 18:56:13;;;;;;;11.17;3.33;;;;;;;;;;6144644;23;20207;-89
2023/03/28 18:59:19;;;;;;;9.13;2.40;;;;;;;;;;6150957;23;20172;-90
2023/03/28 19:02:27;;;;;;;15.00;4.97;;;;;;;;;;6148893;23;20176;-90
2023/03/28 19:05:34;;;;;;;6.63;2.80;;;;;;;;;;6144683;23;20173;-90
2023/03/28 19:08:40;;;;;;;9.83;3.00;;;;;;;;;;6144492;23;20167;-91
2023/03/28 19:11:48;;;;;;;12.63;3.40;;;;;;;;;;6145155;23;20172;-90
2023/03/28 19:14:54;;;;;;;13.77;3.67;;;;;;;;;;6144132;23;20264;-91
2023/03/28 19:18:02;;;;;;;7.87;2.83;;;;;;;;;;6144702;23;20164;-90
2023/03/28 19:21:08;;;;;;;7.47;2.80;;;;;;;;;;6145961;23;20233;-89
2023/03/28 19:24:13;;;;;;;12.27;3.37;;;;;;;;;;6146973;23;20172;-90
2023/03/28 19:27:18;;;;;;;10.60;3.13;;;;;;;;;;6144829;23;20177;-92
2023/03/28 19:30:23;;;;;;;10.93;3.10;;;;;;;;;;6145620;23;20189;-91
2023/03/28 19:33:30;;;;;;;14.43;3.30;;;;;;;;;;6145290;23;20168;-90
2023/03/28 19:36:35;;;;;;;9.93;2.97;;;;;;;;;;6148378;23;20238;-90
2023/03/28 19:39:41;;;;;;;14.80;3.20;;;;;;;;;;6147936;23;20326;-91
2023/03/28 19:42:46;;;;;;;7.87;2.63;;;;;;;;;;6146063;23;20260;-89
2023/03/28 19:45:51;;;;;;;6.30;2.87;;;;;;;;;;6146617;23;20176;-90
2023/03/28 19:48:58;;;;;;;9.90;3.67;;;;;;;;;;6144078;23;20172;-91
2023/03/28 19:52:04;;;;;;;7.17;2.77;;;;;;;;;;6144668;23;20172;-90
2023/03/28 19:55:09;;;;;;;8.03;3.07;;;;;;;;;;6144327;23;20192;-89
2023/03/28 19:58:15;;;;;;;10.10;2.87;;;;;;;;;;6142595;23;20173;-88
2023/03/28 20:01:54;;;;;;;8.40;2.80;;;;;;;;;;6143107;23;20152;-91
2023/03/28 20:05:01;;;;;;;8.80;3.07;;;;;;;;;;6144189;23;20211;-90
2023/03/28 20:08:07;;;;;;;14.57;3.60;;;;;;;;;;6143914;23;20615;-88
2023/03/28 20:11:21;;;;;;;13.07;3.57;;;;;;;;;;6145299;23;20176;-90
2023/03/28 20:14:40;;;;;;;13.43;4.10;;;;;;;;;;6147391;23;20196;-91
2023/03/28 20:17:45;;;;;;;16.50;4.63;;;;;;;;;;6149382;23;20481;-89
2023/03/28 20:21:10;;;;;;;13.83;4.27;;;;;;;;;;6146251;23;20238;-89
2023/03/28 20:24:17;;;;;;;16.07;4.77;;;;;;;;;;6146221;23;20169;-89
2023/03/28 20:27:23;;;;;;;13.47;4.10;;;;;;;;;;6144324;23;20216;-89
2023/03/28 20:30:28;;;;;;;12.73;3.87;;;;;;;;;;6145808;23;20218;-89
2023/03/28 20:33:35;;;;;;;12.93;3.93;;;;;;;;;;6143805;23;20220;-88
2023/03/28 20:36:41;;;;;;;13.00;3.17;;;;;;;;;;6143368;23;20180;-90
2023/03/28 20:39:49;;;;;;;9.50;3.10;;;;;;;;;;6144151;23;20169;-90
2023/03/28 20:42:55;;;;;;;10.97;3.83;;;;;;;;;;6144349;23;20168;-89
2023/03/28 20:46:03;;;;;;;12.37;2.90;;;;;;;;;;6143596;23;20168;-89
2023/03/28 20:49:09;;;;;;;15.27;3.40;;;;;;;;;;6145145;23;20156;-91
2023/03/28 20:52:14;;;;;;;8.17;3.27;;;;;;;;;;6142773;23;20224;-89
2023/03/28 20:55:21;;;;;;;8.90;3.03;;;;;;;;;;6143194;23;20235;-90
2023/03/28 20:58:25;;;;;;;8.83;2.97;;;;;;;;;;6143518;23;20172;-88
2023/03/28 21:01:38;;;;;;;10.70;3.13;;;;;;;;;;6143558;23;20168;-91
2023/03/28 21:04:43;;;;;;;11.90;3.00;;;;;;;;;;6143822;23;20181;-90
2023/03/28 21:07:48;;;;;;;7.33;3.13;;;;;;;;;;6144156;23;20506;-91
2023/03/28 21:10:55;;;;;;;11.83;3.10;;;;;;;;;;6143082;23;20592;-91
2023/03/28 21:14:00;;;;;;;13.47;3.00;;;;;;;;;;6142562;23;20231;-90
2023/03/28 21:17:08;;;;;;;13.40;3.50;;;;;;;;;;6142573;23;20172;-91
2023/03/28 21:20:17;;;;;;;10.40;2.77;;;;;;;;;;6141446;23;20176;-89
2023/03/28 21:23:21;;;;;;;12.80;3.50;;;;;;;;;;6141633;23;20207;-92
2023/03/28 21:26:28;;;;;;;13.87;3.63;;;;;;;;;;6140553;23;20172;-89
2023/03/28 21:29:33;;;;;;;12.30;3.20;;;;;;;;;;6141066;23;20222;-89
2023/03/28 21:32:38;;;;;;;11.83;3.90;;;;;;;;;;6143201;23;20240;-90
2023/03/28 21:35:44;;;;;;;15.50;3.53;;;;;;;;;;6143467;23;20196;-90
2023/03/28 21:38:49;;;;;;;10.27;2.97;;;;;;;;;;6144569;23;20176;-91
2023/03/28 21:41:56;;;;;;;7.73;2.97;;;;;;;;;;6142495;23;20180;-89
2023/03/28 21:45:01;;;;;;;12.43;3.73;;;;;;;;;;6143654;23;20168;-89
2023/03/28 21:48:06;;;;;;;10.90;3.10;;;;;;;;;;6143030;23;20291;-89
2023/03/28 21:51:11;;;;;;;9.70;3.10;;;;;;;;;;6141302;23;20197;-89
2023/03/28 21:54:17;;;;;;;9.40;3.10;;;;;;;;;;6142558;23;20513;-90
2023/03/28 21:57:24;;;;;;;12.90;3.30;;;;;;;;;;6143072;23;20172;-90
2023/03/28 22:00:29;;;;;;;11.60;3.70;;;;;;;;;;6142038;23;20179;-90
2023/03/28 22:03:36;;;;;;;17.30;7.73;;;;;;;;;;6140916;23;20251;-92
2023/03/28 22:06:41;;;;;;;14.23;5.80;;;;;;;;;;6139634;23;20224;-90
2023/03/28 22:09:49;;;;;;;8.43;3.97;;;;;;;;;;6140952;23;20198;-89
2023/03/28 22:12:58;;;;;;;11.93;3.33;;;;;;;;;;6141514;23;20173;-91
2023/03/28 22:16:03;;;;;;;10.93;3.00;;;;;;;;;;6141852;23;20246;-88
2023/03/28 22:19:10;;;;;;;8.10;2.70;;;;;;;;;;6141657;23;20172;-88